Moment Of Zen — WDH6746 — position and weather

sailwx.info

Track history (hours):
 
Tides and Currents Weather Stations Pressure Air Temp Water Temp Dewpoint Dewpoint Depression Visibility Wind Speed Wind Dir Waves Ship Positions

Moment Of Zen

Owner: Schroath, Frederick W, Green Cove Springs, FL. More information available from US FCC via Universal Licensing System and Coast Guard Vessel Documentation Center.

Last reported at 2018-Apr-23 14:18 UTC. Time now 2018-Apr-24 14:32 UTC.
Position N 38°50' W 076°27'.

Length 11 m.

Type: Pleasure craft. MMSI: 367641240.

Date/timePositionNaut miles runAvg speedWind from/ knotsBaromVisibWave heightAir tempDewpointWater temp
2018-Apr-23 14:18N 38°50' W 076°27'2 6.1
2018-Apr-23 13:59N 38°52' W 076°27'5 5.9
2018-Apr-23 13:09N 38°57' W 076°27'  
2018-Apr-15 17:01N 38°58' W 076°29'1 4.7
2018-Apr-15 16:47N 38°58' W 076°27'3 5.6
2018-Apr-15 16:18N 38°55' W 076°26'2 5.6
2018-Apr-15 15:56N 38°53' W 076°27'3 5.4
2018-Apr-15 15:26N 38°52' W 076°30'1 1.6
2018-Apr-15 14:37N 38°51' W 076°32'1 6.7
2018-Apr-15 14:30N 38°52' W 076°31'  
Track history (hours):
 
Tides and Currents Weather Stations Pressure Air Temp Water Temp Dewpoint Dewpoint Depression Visibility Wind Speed Wind Dir Waves Ship Positions

Moment Of Zen

Owner: Schroath, Frederick W, Green Cove Springs, FL. More information available from US FCC via Universal Licensing System and Coast Guard Vessel Documentation Center.

Last reported at 2018-Apr-23 14:18 UTC. Time now 2018-Apr-24 14:32 UTC.
Position N 38°50' W 076°27'.

Length 11 m.

Type: Pleasure craft. MMSI: 367641240.

Date/timePositionNaut miles runAvg speedWind from/ knotsBaromVisibWave heightAir tempDewpointWater temp
2018-Apr-23 14:18N 38°50' W 076°27'2 6.1
2018-Apr-23 13:59N 38°52' W 076°27'5 5.9
2018-Apr-23 13:09N 38°57' W 076°27'  
2018-Apr-15 17:01N 38°58' W 076°29'1 4.7
2018-Apr-15 16:47N 38°58' W 076°27'3 5.6
2018-Apr-15 16:18N 38°55' W 076°26'2 5.6
2018-Apr-15 15:56N 38°53' W 076°27'3 5.4
2018-Apr-15 15:26N 38°52' W 076°30'1 1.6
2018-Apr-15 14:37N 38°51' W 076°32'1 6.7
2018-Apr-15 14:30N 38°52' W 076°31'  

Dump ship's entire track history